Time;durP1;ratioP1;P1;durP2;ratioP2;P2;SDS_P1;SDS_P2;PMS_P1;PMS_P2;Temp;Humidity;BMP_temperature;BMP_pressure;BME280_temperature;BME280_humidity;BME280_pressure;Samples;Min_cycle;Max_cycle;Signal;HPM_P1;HPM_P2
2022/04/29 00:00:14;;;;;;;;;8.25;5.50;;;;;8.44;76.78;-18705.38;5009652;28;10988;-70
2022/04/29 00:02:41;;;;;;;;;2.25;2.25;;;;;8.44;76.82;-18705.50;4993765;28;10954;-70
2022/04/29 00:05:11;;;;;;;;;7.00;4.50;;;;;8.54;76.53;-18708.38;5010698;28;10777;-69
2022/04/29 00:07:39;;;;;;;;;6.00;6.00;;;;;8.47;76.60;-18706.41;4987352;28;10909;-69
2022/04/29 00:10:14;;;;;;;;;5.50;5.50;;;;;8.29;77.78;-18700.97;5005187;28;10988;-69
2022/04/29 00:12:46;;;;;;;;;6.75;6.25;;;;;8.32;77.30;-18702.03;4991646;28;10856;-71
2022/04/29 00:15:14;;;;;;;;;7.00;5.75;;;;;8.27;78.24;-18700.53;4993002;28;10910;-70
2022/04/29 00:17:42;;;;;;;;;4.50;3.50;;;;;8.27;78.30;-18700.53;5009931;28;10859;-70
2022/04/29 00:20:10;;;;;;;;;7.00;4.00;;;;;8.25;78.25;-18699.78;4991316;28;10900;-70
2022/04/29 00:22:37;;;;;;;;;6.00;6.00;;;;;8.27;77.92;-18700.53;4988433;28;10856;-70
2022/04/29 00:25:04;;;;;;;;;6.25;6.25;;;;;8.24;78.22;-18699.47;4986448;28;10939;-70
2022/04/29 00:27:31;;;;;;;;;6.50;4.00;;;;;8.30;77.87;-18701.28;5004483;28;11015;-70
2022/04/29 00:29:57;;;;;;;;;3.25;3.25;;;;;8.35;77.62;-18702.78;5009898;28;10774;-70
2022/04/29 00:32:24;;;;;;;;;3.75;3.75;;;;;8.42;77.45;-18704.91;5004611;28;10732;-71
2022/04/29 00:34:50;;;;;;;;;6.50;5.50;;;;;8.28;77.46;-18700.66;4980237;28;10785;-70
2022/04/29 00:37:18;;;;;;;;;8.00;6.25;;;;;8.30;77.41;-18701.44;4985765;28;10881;-70
2022/04/29 00:39:45;;;;;;;;;9.25;8.00;;;;;8.17;77.63;-18697.50;4964760;28;11062;-70
2022/04/29 00:42:17;;;;;;;;;6.50;4.25;;;;;8.16;77.67;-18697.03;4999678;28;11081;-70
2022/04/29 00:44:45;;;;;;;;;8.00;7.00;;;;;8.16;77.02;-18697.19;5010241;28;11084;-70
2022/04/29 00:47:14;;;;;;;;;6.00;6.00;;;;;8.13;77.53;-18696.13;4991830;28;10859;-70
2022/04/29 00:49:41;;;;;;;;;8.75;7.00;;;;;8.26;76.33;-18700.22;5009621;28;11022;-70
2022/04/29 00:52:17;;;;;;;;;11.50;8.50;;;;;8.17;75.58;-18697.34;4989082;28;11015;-70
2022/04/29 00:54:54;;;;;;;;;7.00;7.00;;;;;7.93;76.33;-18690.25;4973224;28;11117;-70
2022/04/29 00:57:28;;;;;;;;;4.50;4.50;;;;;7.99;75.98;-18692.06;5005381;28;10913;-70
2022/04/29 01:00:03;;;;;;;;;5.00;5.00;;;;;7.89;76.57;-18689.03;4991250;28;10927;-69
2022/04/29 01:02:31;;;;;;;;;6.50;6.50;;;;;8.01;76.27;-18692.66;4995324;28;11059;-70
2022/04/29 01:05:02;;;;;;;;;5.25;4.00;;;;;8.12;76.09;-18695.84;4983068;28;11606;-70
2022/04/29 01:07:29;;;;;;;;;9.75;5.75;;;;;8.10;76.02;-18695.38;4982748;28;11199;-70
2022/04/29 01:09:56;;;;;;;;;11.00;8.00;;;;;7.99;75.89;-18692.06;5000499;28;11006;-70
2022/04/29 01:12:25;;;;;;;;;4.25;4.25;;;;;7.78;76.38;-18685.72;4989162;28;11109;-70
2022/04/29 01:14:55;;;;;;;;;9.00;7.50;;;;;7.76;77.57;-18685.25;5008170;28;10990;-70
2022/04/29 01:17:22;;;;;;;;;7.00;5.00;;;;;7.90;76.74;-18689.34;4989544;28;11070;-69
2022/04/29 01:19:49;;;;;;;;;6.50;6.50;;;;;7.98;76.96;-18691.75;4976618;28;11051;-70
2022/04/29 01:22:16;;;;;;;;;8.00;4.50;;;;;8.11;76.49;-18695.53;4989687;28;11671;-69
2022/04/29 01:24:42;;;;;;;;;7.00;5.25;;;;;7.98;76.59;-18691.91;5011079;28;11078;-70
2022/04/29 01:27:13;;;;;;;;;6.00;6.00;;;;;8.04;76.92;-18693.56;4994186;28;11055;-70
2022/04/29 01:29:41;;;;;;;;;8.25;7.00;;;;;7.87;77.68;-18688.59;4987587;28;10912;-70
2022/04/29 01:32:09;;;;;;;;;6.00;6.00;;;;;7.95;77.27;-18690.84;5011142;28;11100;-70
2022/04/29 01:34:38;;;;;;;;;9.50;6.75;;;;;7.98;76.98;-18691.75;4989767;28;11061;-70
2022/04/29 01:37:08;;;;;;;;;6.50;3.50;;;;;7.96;77.42;-18691.31;4988868;28;11077;-70
2022/04/29 01:39:34;;;;;;;;;5.75;5.75;;;;;7.94;77.12;-18690.56;4991513;28;12898;-70
2022/04/29 01:42:02;;;;;;;;;9.50;6.00;;;;;8.03;76.90;-18693.28;4987173;28;11064;-70
2022/04/29 01:44:28;;;;;;;;;11.25;5.50;;;;;8.01;76.79;-18692.81;5009208;28;11108;-70
2022/04/29 01:46:55;;;;;;;;;4.00;4.00;;;;;7.85;77.55;-18687.84;4990196;28;11680;-70
2022/04/29 01:49:41;;;;;;;;;5.50;4.25;;;;;7.77;77.43;-18685.41;5004480;28;10843;-70
2022/04/29 01:52:08;;;;;;;;;6.50;6.50;;;;;7.72;78.06;-18684.22;5004492;28;10974;-70
2022/04/29 01:54:36;;;;;;;;;7.00;7.00;;;;;7.68;78.22;-18682.84;4986771;28;11682;-69
2022/04/29 01:57:07;;;;;;;;;6.00;6.00;;;;;7.73;78.03;-18684.34;5002260;28;11134;-70
2022/04/29 01:59:35;;;;;;;;;5.50;5.50;;;;;7.78;78.53;-18685.72;4983997;28;11063;-69
2022/04/29 02:02:09;;;;;;;;;2.00;2.00;;;;;7.74;78.20;-18684.50;4991947;28;11766;-70
2022/04/29 02:04:36;;;;;;;;;7.50;7.00;;;;;7.69;78.46;-18683.31;5012694;28;10903;-71
2022/04/29 02:07:05;;;;;;;;;5.50;5.00;;;;;7.76;77.98;-18685.25;5010573;28;11003;-70
2022/04/29 02:09:36;;;;;;;;;5.00;5.00;;;;;8.01;77.78;-18692.66;4994315;28;10842;-70
2022/04/29 02:12:04;;;;;;;;;5.00;5.00;;;;;7.89;78.10;-18689.03;5010207;28;10887;-70
2022/04/29 02:14:49;;;;;;;;;8.00;6.00;;;;;7.87;78.09;-18688.59;5000500;28;10858;-69
2022/04/29 02:17:20;;;;;;;;;7.75;6.50;;;;;7.89;77.81;-18689.19;5002674;28;10946;-70
2022/04/29 02:19:47;;;;;;;;;3.75;3.75;;;;;7.94;77.82;-18690.56;5011491;28;11009;-70
2022/04/29 02:22:13;;;;;;;;;6.25;4.00;;;;;8.02;77.90;-18693.13;4994685;28;10813;-70
2022/04/29 02:24:42;;;;;;;;;4.75;4.50;;;;;7.93;77.71;-18690.41;4995230;28;10952;-70
2022/04/29 02:27:08;;;;;;;;;6.50;6.50;;;;;7.81;78.33;-18686.63;4994156;28;10942;-71
2022/04/29 02:29:38;;;;;;;;;12.00;10.00;;;;;7.71;78.66;-18683.75;4986961;28;11019;-70
2022/04/29 02:32:13;;;;;;;;;11.00;9.00;;;;;7.64;78.57;-18681.78;4990870;28;11396;-70
2022/04/29 02:34:41;;;;;;;;;6.50;6.50;;;;;7.81;78.34;-18686.63;4993980;28;11123;-69
2022/04/29 02:37:10;;;;;;;;;4.00;3.75;;;;;7.70;77.85;-18683.59;5010298;28;10938;-70
2022/04/29 02:39:37;;;;;;;;;8.25;5.00;;;;;7.77;78.17;-18685.41;4990304;28;10930;-70
2022/04/29 02:42:07;;;;;;;;;5.25;5.25;;;;;7.76;77.92;-18685.13;4989394;28;11072;-70
2022/04/29 02:44:38;;;;;;;;;3.50;3.50;;;;;7.76;78.71;-18685.25;4994418;28;10928;-69
2022/04/29 02:47:08;;;;;;;;;6.00;5.00;;;;;7.52;78.57;-18678.16;4993931;28;10858;-70
2022/04/29 02:49:41;;;;;;;;;6.00;5.00;;;;;7.70;78.85;-18683.44;5012106;28;11065;-70
2022/04/29 02:52:11;;;;;;;;;6.00;3.00;;;;;7.73;78.61;-18684.34;4990375;28;11006;-69
2022/04/29 02:54:38;;;;;;;;;6.00;3.75;;;;;7.75;78.16;-18684.97;4987812;28;10934;-69
2022/04/29 02:57:11;;;;;;;;;2.25;2.25;;;;;7.79;78.39;-18686.03;4989800;28;10776;-69
2022/04/29 02:59:41;;;;;;;;;8.00;5.00;;;;;7.79;78.21;-18686.03;4994389;28;10953;-69
2022/04/29 03:02:08;;;;;;;;;8.00;3.00;;;;;7.81;77.78;-18686.63;4993974;28;10845;-70
2022/04/29 03:04:37;;;;;;;;;5.00;2.50;;;;;7.80;78.40;-18686.47;4994413;28;10839;-69
2022/04/29 03:07:04;;;;;;;;;8.50;7.00;;;;;7.63;78.72;-18681.50;4989189;28;10868;-69
2022/04/29 03:09:47;;;;;;;;;5.75;5.75;;;;;7.76;79.13;-18685.13;4963828;28;11203;-69
2022/04/29 03:12:15;;;;;;;;;5.75;5.75;;;;;7.67;79.34;-18682.69;5005079;28;11090;-70
2022/04/29 03:14:45;;;;;;;;;7.00;4.50;;;;;7.74;79.30;-18684.66;4989791;28;10936;-69
2022/04/29 03:19:58;;;;;;;;;8.00;6.00;;;;;7.89;78.27;-18689.19;4978408;28;11123;-69
2022/04/29 03:22:26;;;;;;;;;7.00;7.00;;;;;7.74;78.38;-18684.66;4988955;28;11024;-69
2022/04/29 03:24:54;;;;;;;;;3.50;3.50;;;;;7.66;78.76;-18682.38;4990430;28;10854;-69
2022/04/29 03:27:20;;;;;;;;;8.50;6.25;;;;;7.45;79.08;-18676.06;4987173;28;10835;-69
2022/04/29 03:29:47;;;;;;;;;3.50;3.50;;;;;7.44;79.59;-18675.59;4989220;28;11078;-69
2022/04/29 03:32:14;;;;;;;;;8.50;4.50;;;;;7.47;79.81;-18676.66;4989307;28;10925;-69
2022/04/29 03:35:02;;;;;;;;;5.00;4.00;;;;;7.68;79.15;-18682.84;4984995;28;11119;-70
2022/04/29 03:37:29;;;;;;;;;7.75;7.75;;;;;7.73;78.40;-18684.34;5007227;28;11074;-69
2022/04/29 03:39:55;;;;;;;;;5.00;5.00;;;;;7.75;78.15;-18684.81;4993490;28;11081;-69
2022/04/29 03:42:23;;;;;;;;;4.50;4.50;;;;;7.76;78.50;-18685.13;4993404;28;10947;-69
2022/04/29 03:44:51;;;;;;;;;7.00;7.00;;;;;7.80;78.92;-18686.31;4993350;28;11087;-70
2022/04/29 03:47:20;;;;;;;;;9.00;6.75;;;;;7.74;78.49;-18684.50;5006861;28;11253;-69
2022/04/29 03:50:13;;;;;;;;;4.00;3.00;;;;;7.74;78.93;-18684.50;4985178;28;11879;-69
2022/04/29 03:53:00;;;;;;;;;5.00;5.00;;;;;7.68;78.68;-18682.84;5000834;28;10850;-70
2022/04/29 03:55:32;;;;;;;;;6.00;5.00;;;;;7.57;79.39;-18679.53;4993942;28;11012;-69
2022/04/29 03:58:02;;;;;;;;;8.25;7.25;;;;;7.36;79.96;-18673.31;5010642;28;11157;-70
2022/04/29 04:00:33;;;;;;;;;7.00;5.00;;;;;7.59;79.83;-18680.13;4991213;28;11003;-69
2022/04/29 04:03:06;;;;;;;;;7.50;7.00;;;;;7.53;78.95;-18678.31;4999542;28;11169;-69
2022/04/29 04:05:35;;;;;;;;;7.25;6.00;;;;;7.50;79.43;-18677.41;4992946;28;11192;-69
2022/04/29 04:08:02;;;;;;;;;7.50;6.50;;;;;7.43;79.80;-18675.28;4992907;28;11054;-69
2022/04/29 04:10:41;;;;;;;;;8.75;6.00;;;;;7.53;79.85;-18678.47;5006791;28;11018;-68
2022/04/29 04:13:14;;;;;;;;;5.75;5.25;;;;;7.49;79.58;-18677.09;5006343;28;10965;-68
2022/04/29 04:16:07;;;;;;;;;3.00;3.00;;;;;7.57;78.65;-18679.53;5006647;28;11083;-68
2022/04/29 04:18:35;;;;;;;;;6.00;5.50;;;;;7.48;79.53;-18676.97;4974371;28;10860;-68
2022/04/29 04:21:03;;;;;;;;;4.00;4.00;;;;;7.55;79.54;-18678.91;4975763;28;11107;-68
2022/04/29 04:23:29;;;;;;;;;4.75;2.25;;;;;7.45;79.96;-18676.06;4994999;28;11876;-68
2022/04/29 04:25:57;;;;;;;;;6.00;6.00;;;;;7.55;79.57;-18678.91;4997140;28;10906;-69
2022/04/29 04:28:24;;;;;;;;;8.00;7.25;;;;;7.53;79.77;-18678.31;4992612;28;11129;-69
2022/04/29 04:30:58;;;;;;;;;5.50;4.00;;;;;7.43;79.79;-18675.28;5009317;28;11235;-68
2022/04/29 04:33:34;;;;;;;;;9.25;3.25;;;;;7.43;80.57;-18675.44;5013379;28;11774;-69
2022/04/29 04:36:01;;;;;;;;;10.75;9.25;;;;;7.48;80.46;-18676.81;5013004;28;10904;-69
2022/04/29 04:38:27;;;;;;;;;4.00;4.00;;;;;7.34;80.53;-18672.72;4993708;28;11156;-68
2022/04/29 04:41:08;;;;;;;;;4.25;2.25;;;;;7.46;80.39;-18676.34;4995354;28;10929;-68
2022/04/29 04:43:37;;;;;;;;;9.25;8.00;;;;;7.38;81.00;-18673.94;5007336;28;10867;-68
2022/04/29 04:46:06;;;;;;;;;7.00;5.00;;;;;7.48;81.05;-18676.81;4992121;28;11676;-69
2022/04/29 04:48:40;;;;;;;;;5.50;5.50;;;;;7.43;80.53;-18675.44;5001768;28;11038;-69
2022/04/29 04:51:09;;;;;;;;;6.75;3.75;;;;;7.40;80.81;-18674.69;5001142;28;11066;-70
2022/04/29 04:53:39;;;;;;;;;5.50;4.00;;;;;7.51;80.16;-18677.72;4996691;28;10814;-69
2022/04/29 04:56:06;;;;;;;;;5.50;4.75;;;;;7.58;80.03;-18679.81;4996489;28;10987;-68
2022/04/29 04:58:34;;;;;;;;;5.25;5.00;;;;;7.58;79.78;-18679.97;4993881;28;11151;-71
2022/04/29 05:01:02;;;;;;;;;8.75;5.75;;;;;7.63;79.33;-18681.34;4985638;28;11658;-68
2022/04/29 05:03:41;;;;;;;;;5.00;5.00;;;;;7.72;79.40;-18684.22;5014390;28;11121;-69
2022/04/29 05:06:27;;;;;;;;;7.50;6.00;;;;;7.59;79.12;-18680.28;5010688;28;10973;-71
2022/04/29 05:08:54;;;;;;;;;5.50;5.50;;;;;7.61;80.16;-18680.88;4996470;28;10956;-69
2022/04/29 05:11:21;;;;;;;;;4.00;3.00;;;;;7.57;79.50;-18679.53;4984290;28;11013;-69
2022/04/29 05:14:18;;;;;;;;;9.50;6.50;;;;;7.57;80.64;-18679.53;4987541;28;11171;-69
2022/04/29 05:16:47;;;;;;;;;6.00;4.00;;;;;7.60;79.96;-18680.44;4991254;28;11126;-69
2022/04/29 05:19:34;;;;;;;;;3.25;3.25;;;;;7.53;79.61;-18678.47;4994454;28;10959;-69
2022/04/29 05:22:01;;;;;;;;;9.00;3.00;;;;;7.50;80.43;-18677.56;4995342;28;10904;-69
2022/04/29 05:24:28;;;;;;;;;5.00;5.00;;;;;7.57;79.26;-18679.69;4992671;28;11042;-69
2022/04/29 05:27:32;;;;;;;;;6.00;5.50;;;;;7.66;80.18;-18682.38;5008808;28;10836;-69
2022/04/29 05:30:18;;;;;;;;;4.00;4.00;;;;;7.77;79.31;-18685.41;5009378;28;10995;-71
2022/04/29 05:33:03;;;;;;;;;7.50;6.50;;;;;7.68;79.14;-18683.00;5003113;28;11153;-69
2022/04/29 05:35:49;;;;;;;;;7.00;6.00;;;;;7.84;79.05;-18687.69;5013548;28;11127;-69
2022/04/29 05:44:08;;;;;;;;;4.25;3.00;;;;;7.99;78.96;-18692.06;5004414;28;10788;-71
2022/04/29 05:46:35;;;;;;;;;9.00;5.50;;;;;7.87;78.70;-18688.59;4992383;28;10971;-68
2022/04/29 05:49:03;;;;;;;;;6.00;5.50;;;;;7.83;78.72;-18687.38;5008202;28;11114;-68
2022/04/29 05:51:35;;;;;;;;;4.00;4.00;;;;;7.89;79.14;-18689.03;4992934;28;11033;-68
2022/04/29 05:54:02;;;;;;;;;6.00;6.00;;;;;7.98;78.31;-18691.75;4960088;28;11044;-68
2022/04/29 05:56:29;;;;;;;;;5.50;5.50;;;;;7.92;78.88;-18690.09;5000818;28;10890;-68
2022/04/29 05:58:58;;;;;;;;;5.00;4.50;;;;;8.03;78.12;-18693.41;4976292;28;11077;-69
2022/04/29 06:01:44;;;;;;;;;6.00;5.00;;;;;8.12;77.91;-18695.84;4994104;28;11008;-68
2022/04/29 06:04:12;;;;;;;;;5.50;4.00;;;;;8.15;78.23;-18696.91;4994636;28;11729;-69
2022/04/29 06:06:42;;;;;;;;;4.75;3.00;;;;;8.12;78.07;-18696.00;5011063;28;11063;-68
2022/04/29 06:09:09;;;;;;;;;4.00;4.00;;;;;8.13;78.36;-18696.13;5009361;28;11128;-67
2022/04/29 06:11:35;;;;;;;;;5.50;5.00;;;;;8.18;78.11;-18697.66;4980461;28;10857;-69
2022/04/29 06:14:04;;;;;;;;;4.25;3.00;;;;;8.21;78.13;-18698.56;4993825;28;11084;-71
2022/04/29 06:16:51;;;;;;;;;4.50;4.00;;;;;8.27;77.91;-18700.38;5005501;28;11002;-71
2022/04/29 06:19:36;;;;;;;;;4.00;2.00;;;;;8.38;77.50;-18703.69;5008160;28;10834;-72
2022/04/29 06:22:23;;;;;;;;;5.25;5.00;;;;;8.22;77.95;-18699.00;5005055;28;10774;-71
2022/04/29 06:24:52;;;;;;;;;8.00;6.50;;;;;8.26;77.91;-18700.06;5008676;28;10901;-70
2022/04/29 06:27:34;;;;;;;;;7.00;5.00;;;;;8.26;78.14;-18700.22;5015841;28;11123;-71
2022/04/29 06:30:01;;;;;;;;;7.00;4.00;;;;;8.54;77.91;-18708.38;4989406;28;10832;-69
2022/04/29 06:32:53;;;;;;;;;6.25;5.25;;;;;8.57;76.82;-18709.44;5010257;28;10906;-72
2022/04/29 06:35:21;;;;;;;;;6.50;4.75;;;;;8.66;77.08;-18711.84;4995434;28;10776;-70
2022/04/29 06:37:50;;;;;;;;;6.00;4.75;;;;;8.67;76.51;-18712.16;4997177;28;11076;-71
2022/04/29 06:40:39;;;;;;;;;6.50;6.50;;;;;8.76;76.15;-18714.88;5016439;28;10853;-71
2022/04/29 06:43:06;;;;;;;;;9.00;7.25;;;;;8.89;76.17;-18718.81;5015900;28;10767;-70
2022/04/29 06:45:51;;;;;;;;;4.00;3.00;;;;;8.90;75.07;-18719.25;5004630;28;10982;-71
2022/04/29 06:48:49;;;;;;;;;5.00;5.00;;;;;8.70;74.63;-18713.06;4938468;28;10587;-72
2022/04/29 06:51:41;;;;;;;;;2.50;2.50;;;;;8.77;75.08;-18715.19;5003082;28;10786;-71
2022/04/29 06:54:16;;;;;;;;;4.25;3.50;;;;;8.83;75.19;-18717.00;4993394;28;10650;-71
2022/04/29 06:56:47;;;;;;;;;5.50;4.75;;;;;8.62;75.67;-18710.78;4993558;28;10821;-72
2022/04/29 06:59:14;;;;;;;;;6.25;6.25;;;;;9.60;78.88;-18739.94;4996915;28;10772;-68
2022/04/29 07:01:42;;;;;;;;;6.25;5.25;;;;;9.21;73.68;-18728.47;4999950;28;10887;-71
2022/04/29 07:04:09;;;;;;;;;7.75;6.75;;;;;8.97;73.79;-18721.22;5000080;28;10897;-71
2022/04/29 07:06:36;;;;;;;;;8.75;8.75;;;;;8.88;74.46;-18718.66;4993108;28;10712;-71
2022/04/29 07:09:04;;;;;;;;;3.50;2.00;;;;;9.08;74.16;-18724.53;4990343;28;10838;-72
2022/04/29 07:11:51;;;;;;;;;4.75;4.75;;;;;9.03;74.78;-18723.03;5007384;28;10609;-71
2022/04/29 07:14:25;;;;;;;;;8.75;5.00;;;;;9.12;74.20;-18725.59;4986724;28;10571;-71
2022/04/29 07:16:59;;;;;;;;;5.25;4.00;;;;;9.13;73.48;-18725.91;4990316;28;10733;-71
2022/04/29 07:19:55;;;;;;;;;7.25;5.50;;;;;8.97;74.44;-18721.22;4990498;28;11465;-71
2022/04/29 07:22:29;;;;;;;;;11.00;7.50;;;;;8.85;74.45;-18717.75;4993209;28;10636;-71
2022/04/29 07:24:57;;;;;;;;;6.75;5.50;;;;;9.02;74.33;-18722.72;4969806;28;10789;-71
2022/04/29 07:27:24;;;;;;;;;6.50;5.75;;;;;9.03;74.05;-18722.88;4996684;28;10787;-72
2022/04/29 07:29:51;;;;;;;;;8.25;6.25;;;;;9.01;74.02;-18722.28;4996375;28;10632;-72
2022/04/29 07:32:27;;;;;;;;;4.00;4.00;;;;;9.02;74.53;-18722.56;4995613;28;10812;-71
2022/04/29 07:43:41;;;;;;;;;7.75;7.25;;;;;8.76;75.79;-18715.03;4998602;28;10729;-72
2022/04/29 07:46:10;;;;;;;;;6.50;6.50;;;;;8.82;75.61;-18716.84;4995720;28;10834;-70
2022/04/29 07:48:52;;;;;;;;;6.00;4.75;;;;;8.86;75.23;-18718.03;4998231;28;10791;-74
2022/04/29 07:51:19;;;;;;;;;4.50;3.00;;;;;8.76;75.44;-18715.03;4996060;28;10621;-72
2022/04/29 07:53:46;;;;;;;;;8.00;5.75;;;;;8.97;75.61;-18721.06;4992939;28;10837;-71
2022/04/29 07:56:12;;;;;;;;;5.00;4.50;;;;;8.87;75.50;-18718.34;4995109;28;10722;-71
2022/04/29 07:58:39;;;;;;;;;7.00;5.50;;;;;8.79;75.56;-18715.94;5008060;28;10780;-71
2022/04/29 08:01:09;;;;;;;;;8.50;4.50;;;;;8.88;76.07;-18718.50;4987810;28;10714;-71
2022/04/29 08:03:39;;;;;;;;;9.25;6.00;;;;;8.91;75.34;-18719.56;5010054;28;10852;-71
2022/04/29 08:06:09;;;;;;;;;7.50;6.75;;;;;8.80;75.96;-18716.09;4986358;28;10718;-71
2022/04/29 08:08:39;;;;;;;;;7.75;7.75;;;;;8.72;75.71;-18713.81;4990464;28;11603;-70
2022/04/29 08:11:10;;;;;;;;;10.00;6.00;;;;;8.80;75.84;-18716.22;4971557;28;10953;-68
2022/04/29 08:13:57;;;;;;;;;4.00;4.00;;;;;8.74;75.39;-18714.41;4967691;28;10863;-71
2022/04/29 08:17:03;;;;;;;;;10.25;3.50;;;;;8.77;75.29;-18715.19;4987432;28;10815;-72
2022/04/29 08:19:36;;;;;;;;;5.75;5.75;;;;;8.81;75.04;-18716.38;4984702;28;11574;-72
2022/04/29 08:22:17;;;;;;;;;12.25;9.25;;;;;8.85;75.07;-18717.75;4998917;28;10778;-71
2022/04/29 08:24:44;;;;;;;;;6.00;4.50;;;;;8.89;74.94;-18718.81;4994474;28;10734;-72
2022/04/29 08:27:11;;;;;;;;;8.00;6.00;;;;;9.09;75.13;-18724.84;5005958;28;10854;-71
2022/04/29 08:29:39;;;;;;;;;7.25;6.25;;;;;9.13;74.51;-18725.91;5012548;28;10819;-70
2022/04/29 08:32:06;;;;;;;;;6.00;6.00;;;;;9.18;73.95;-18727.56;4994046;28;10946;-72
2022/04/29 08:34:37;;;;;;;;;4.00;4.00;;;;;9.37;73.11;-18733.00;4999230;28;11537;-72
2022/04/29 08:37:04;;;;;;;;;6.50;5.25;;;;;9.43;73.30;-18734.81;4989739;28;10684;-71
2022/04/29 08:39:37;;;;;;;;;6.50;5.25;;;;;9.27;72.50;-18729.97;4989985;28;10878;-70
2022/04/29 08:42:06;;;;;;;;;8.25;5.25;;;;;9.30;72.77;-18731.03;4998400;28;10862;-70
2022/04/29 08:44:34;;;;;;;;;4.50;4.00;;;;;9.35;72.86;-18732.38;4975849;28;10831;-69
2022/04/29 08:47:17;;;;;;;;;6.25;5.50;;;;;9.35;72.47;-18732.38;4998858;28;10672;-70
2022/04/29 08:49:56;;;;;;;;;5.25;5.25;;;;;9.37;72.60;-18733.13;4993553;28;10479;-70
2022/04/29 08:52:23;;;;;;;;;4.00;3.75;;;;;9.53;72.52;-18737.97;5010854;28;10597;-70
2022/04/29 09:00:31;;;;;;;;;5.25;5.25;;;;;9.52;72.49;-18737.53;4991384;28;10670;-68
2022/04/29 09:03:00;;;;;;;;;10.00;10.00;;;;;9.58;73.10;-18739.34;4984722;28;10777;-69
2022/04/29 09:05:27;;;;;;;;;7.50;7.00;;;;;9.34;73.12;-18732.09;5000935;28;10983;-69
2022/04/29 09:08:00;;;;;;;;;9.00;8.00;;;;;9.60;72.95;-18739.78;4996796;28;10678;-69
2022/04/29 09:10:35;;;;;;;;;8.25;8.25;;;;;9.39;72.31;-18733.75;4998281;28;10654;-70
2022/04/29 09:13:17;;;;;;;;;9.00;6.25;;;;;9.43;72.89;-18734.81;4997671;28;10849;-69
2022/04/29 09:15:48;;;;;;;;;11.50;8.75;;;;;9.26;71.55;-18729.81;4998728;28;10718;-68
2022/04/29 09:18:39;;;;;;;;;8.50;8.00;;;;;9.21;72.19;-18728.47;4999998;28;10832;-69
2022/04/29 09:21:20;;;;;;;;;8.00;8.00;;;;;9.32;72.42;-18731.63;5002227;28;10789;-68
2022/04/29 09:23:56;;;;;;;;;7.75;7.00;;;;;9.33;71.81;-18731.94;4984929;28;10907;-71
2022/04/29 09:26:35;;;;;;;;;8.50;5.25;;;;;9.38;71.73;-18733.28;4984512;28;10736;-70
2022/04/29 09:29:24;;;;;;;;;10.25;9.50;;;;;9.13;72.11;-18725.91;4987846;28;10650;-69
2022/04/29 09:32:11;;;;;;;;;7.75;7.50;;;;;9.13;73.01;-18725.91;4984421;28;10896;-68
2022/04/29 09:34:58;;;;;;;;;7.50;7.00;;;;;9.07;72.94;-18724.22;5002478;28;10795;-69
2022/04/29 09:37:27;;;;;;;;;11.50;10.75;;;;;9.22;72.21;-18728.75;4983731;28;10770;-71
2022/04/29 09:40:02;;;;;;;;;12.25;11.00;;;;;9.16;72.23;-18726.81;4983051;28;10867;-71
2022/04/29 09:42:43;;;;;;;;;10.25;9.75;;;;;9.12;72.02;-18725.59;4969290;28;10894;-72
2022/04/29 09:45:23;;;;;;;;;6.00;5.00;;;;;9.26;71.55;-18729.81;4980998;28;10953;-69
2022/04/29 09:48:00;;;;;;;;;10.50;6.75;;;;;9.44;72.15;-18735.09;5000060;28;10734;-71
2022/04/29 09:50:48;;;;;;;;;10.00;10.00;;;;;9.55;71.72;-18738.44;5001451;28;10829;-69
2022/04/29 09:53:21;;;;;;;;;9.00;6.75;;;;;9.44;71.26;-18735.09;5003552;28;10787;-72
2022/04/29 09:56:08;;;;;;;;;8.25;7.25;;;;;9.53;71.06;-18737.97;4971576;28;10752;-70
2022/04/29 09:58:35;;;;;;;;;3.50;3.50;;;;;9.63;71.00;-18740.84;5002072;28;10772;-69
2022/04/29 10:01:04;;;;;;;;;12.75;12.75;;;;;9.67;70.47;-18741.91;5002297;28;10811;-72
2022/04/29 10:03:32;;;;;;;;;11.50;10.75;;;;;9.76;70.39;-18744.63;4987061;28;11153;-70
2022/04/29 10:06:01;;;;;;;;;7.25;5.75;;;;;10.03;69.79;-18752.75;4998841;28;10905;-69
2022/04/29 10:08:31;;;;;;;;;7.50;6.75;;;;;10.07;69.81;-18753.97;4987002;28;10606;-70
2022/04/29 10:10:59;;;;;;;;;5.25;5.25;;;;;10.27;69.06;-18759.72;5001220;28;10468;-70
2022/04/29 10:13:27;;;;;;;;;8.00;8.00;;;;;10.31;68.15;-18761.06;5001372;28;10618;-70
2022/04/29 10:16:11;;;;;;;;;8.00;6.50;;;;;10.25;67.45;-18759.09;4998723;28;10602;-69
2022/04/29 10:22:14;;;;;;;;;8.75;6.25;;;;;10.05;68.04;-18753.22;5000661;28;10652;-69
2022/04/29 10:24:42;;;;;;;;;10.00;9.75;;;;;9.82;67.74;-18746.44;4999470;28;10538;-69
2022/04/29 10:27:11;;;;;;;;;8.00;6.75;;;;;9.74;68.18;-18744.00;4999709;28;11200;-69
2022/04/29 10:29:38;;;;;;;;;11.25;8.75;;;;;9.75;68.26;-18744.47;4986335;28;10546;-69
2022/04/29 10:32:07;;;;;;;;;8.25;8.00;;;;;9.79;67.93;-18745.53;5002876;28;10819;-71
2022/04/29 10:34:35;;;;;;;;;7.50;6.75;;;;;9.74;66.94;-18744.16;4999712;28;10677;-69
2022/04/29 10:37:14;;;;;;;;;7.00;7.00;;;;;10.09;66.57;-18754.44;4997177;28;10589;-71
2022/04/29 10:40:01;;;;;;;;;6.75;6.75;;;;;9.93;65.37;-18749.75;4997640;28;10577;-73
2022/04/29 10:42:28;;;;;;;;;8.75;8.50;;;;;10.07;65.69;-18753.97;5004106;28;10543;-69
2022/04/29 10:45:00;;;;;;;;;6.75;6.00;;;;;9.98;65.52;-18751.25;4982507;28;10520;-69
2022/04/29 10:47:36;;;;;;;;;7.75;3.50;;;;;10.00;65.76;-18751.84;5009789;28;10646;-70
2022/04/29 10:50:30;;;;;;;;;9.00;7.00;;;;;10.13;65.86;-18755.63;5008285;28;10524;-69
2022/04/29 10:53:22;;;;;;;;;9.25;7.00;;;;;10.36;65.12;-18762.56;4979990;28;10594;-69
2022/04/29 10:55:51;;;;;;;;;7.00;7.00;;;;;10.47;64.45;-18765.75;5009860;28;10587;-70
2022/04/29 10:58:45;;;;;;;;;9.75;7.75;;;;;10.44;65.10;-18764.84;5004212;28;10529;-72
2022/04/29 11:01:14;;;;;;;;;10.00;6.75;;;;;10.40;64.63;-18763.63;4994096;28;10710;-69
2022/04/29 11:03:43;;;;;;;;;7.00;7.00;;;;;10.37;64.90;-18762.88;4991308;28;11320;-70
2022/04/29 11:06:12;;;;;;;;;10.25;9.75;;;;;10.66;64.34;-18771.47;4974788;28;10639;-70
2022/04/29 11:08:40;;;;;;;;;11.50;10.00;;;;;10.74;64.10;-18773.91;4998648;28;10725;-69
2022/04/29 11:11:07;;;;;;;;;13.00;9.50;;;;;10.53;64.50;-18767.41;5002446;28;10816;-69
2022/04/29 11:14:02;;;;;;;;;11.25;7.75;;;;;10.38;64.68;-18763.19;5007035;28;10569;-69
2022/04/29 11:17:10;;;;;;;;;8.00;8.00;;;;;10.43;65.28;-18764.69;4992080;28;10390;-69
2022/04/29 11:19:48;;;;;;;;;13.00;10.25;;;;;10.41;64.87;-18763.94;4992100;28;10491;-69
2022/04/29 11:25:07;;;;;;;;;9.00;8.50;;;;;10.82;64.86;-18776.16;5004785;28;10595;-69
2022/04/29 11:27:41;;;;;;;;;12.00;9.75;;;;;10.87;64.65;-18777.50;4993931;28;10548;-69
2022/04/29 11:30:14;;;;;;;;;8.50;8.50;;;;;10.87;63.04;-18777.66;5002499;28;10529;-69
2022/04/29 11:32:45;;;;;;;;;8.00;8.00;;;;;10.52;64.64;-18767.25;4991907;28;10737;-68
2022/04/29 11:35:12;;;;;;;;;7.25;7.25;;;;;10.51;65.35;-18766.94;4974549;28;10736;-68
2022/04/29 11:37:38;;;;;;;;;11.75;10.25;;;;;10.75;65.14;-18774.03;4994992;28;11134;-69
2022/04/29 11:40:09;;;;;;;;;9.25;6.00;;;;;10.88;65.01;-18777.97;5011104;28;10497;-68
2022/04/29 11:42:36;;;;;;;;;8.50;4.75;;;;;11.04;64.96;-18782.63;4992728;28;10563;-69
2022/04/29 11:45:06;;;;;;;;;10.00;8.75;;;;;10.91;65.01;-18778.72;5011138;28;10506;-71
2022/04/29 11:47:34;;;;;;;;;10.00;8.00;;;;;11.05;65.03;-18782.94;5009505;28;10340;-69
2022/04/29 11:50:03;;;;;;;;;7.00;5.75;;;;;11.23;63.87;-18788.22;4993765;28;10471;-68
2022/04/29 11:52:31;;;;;;;;;8.75;8.50;;;;;10.88;64.27;-18777.81;5007126;28;10354;-69
2022/04/29 11:55:13;;;;;;;;;13.25;11.00;;;;;10.79;64.65;-18775.25;4999775;28;11328;-69
2022/04/29 11:57:49;;;;;;;;;11.75;9.25;;;;;10.77;64.21;-18774.81;5007096;28;10403;-70
2022/04/29 12:00:31;;;;;;;;;13.00;10.25;;;;;10.85;64.77;-18776.91;5002389;28;10495;-70
2022/04/29 12:02:59;;;;;;;;;6.00;4.00;;;;;10.99;64.03;-18781.28;4988487;28;11294;-69
2022/04/29 12:05:29;;;;;;;;;12.25;9.75;;;;;11.10;63.52;-18784.44;5006496;28;10559;-69
2022/04/29 12:08:02;;;;;;;;;9.00;9.00;;;;;10.95;63.15;-18779.94;4976624;28;10620;-70
2022/04/29 12:10:35;;;;;;;;;12.25;8.25;;;;;11.49;61.42;-18796.06;4984447;28;10325;-69
2022/04/29 12:13:04;;;;;;;;;8.00;8.00;;;;;11.66;60.58;-18801.19;5004307;28;10476;-70
2022/04/29 12:15:38;;;;;;;;;7.00;7.00;;;;;11.60;61.28;-18799.38;5000505;28;10383;-69
2022/04/29 12:18:08;;;;;;;;;6.50;6.50;;;;;11.23;62.51;-18788.22;5005057;28;10320;-68
2022/04/29 12:20:56;;;;;;;;;6.00;6.00;;;;;11.23;63.30;-18788.22;4986541;28;10412;-69
2022/04/29 12:23:24;;;;;;;;;9.50;8.50;;;;;11.30;62.26;-18790.34;4999714;28;10395;-69
2022/04/29 12:25:51;;;;;;;;;10.00;8.00;;;;;11.45;62.05;-18794.72;5008103;28;10313;-71